createdAt,value
2023-03-26T00:02:16.165Z,45.14
2023-03-26T00:04:42.811Z,43.95
2023-03-26T00:07:10.658Z,43.82
2023-03-26T00:09:37.295Z,45.48
2023-03-26T00:12:04.342Z,44.54
2023-03-26T00:14:32.652Z,45.47
2023-03-26T00:16:59.415Z,44.37
2023-03-26T00:19:26.150Z,44.99
2023-03-26T00:21:53.329Z,45.95
2023-03-26T00:24:19.941Z,45.23
2023-03-26T00:26:53.556Z,44.42
2023-03-26T00:29:20.746Z,45.17
2023-03-26T00:31:47.359Z,46.28
2023-03-26T00:34:15.763Z,45.98
2023-03-26T00:36:43.948Z,45.82
2023-03-26T00:39:10.902Z,45.81
2023-03-26T00:41:43.202Z,46.43
2023-03-26T00:44:10.465Z,45.74
2023-03-26T00:46:37.537Z,44.46
2023-03-26T00:49:04.264Z,44.23
2023-03-26T00:51:31.504Z,43.83
2023-03-26T00:53:58.525Z,44.15
2023-03-26T00:56:25.934Z,43.29
2023-03-26T00:58:52.613Z,43.61
2023-03-26T01:01:28.335Z,43.55
2023-03-26T01:04:07.590Z,43.40
2023-03-26T01:06:37.282Z,44.46
2023-03-26T01:09:15.951Z,44.02
2023-03-26T01:11:42.711Z,43.78
2023-03-26T01:14:10.972Z,42.83
2023-03-26T01:16:46.058Z,44.62
2023-03-26T01:19:22.964Z,43.81
2023-03-26T01:21:49.624Z,42.61
2023-03-26T01:24:16.260Z,43.39
2023-03-26T01:26:49.123Z,43.41
2023-03-26T01:29:21.262Z,43.90
2023-03-26T01:31:57.089Z,43.89
2023-03-26T01:34:30.705Z,44.82
2023-03-26T01:37:04.665Z,43.79
2023-03-26T01:39:34.281Z,43.75
2023-03-26T01:42:08.212Z,43.96
2023-03-26T01:44:40.820Z,42.58
2023-03-26T01:47:09.659Z,44.58
2023-03-26T01:49:36.500Z,43.66
2023-03-26T01:52:06.283Z,44.68
2023-03-26T01:54:34.125Z,44.49
2023-03-26T01:57:14.744Z,44.96
2023-03-26T01:59:41.611Z,44.52
2023-03-26T02:02:26.446Z,44.24
2023-03-26T02:05:13.967Z,44.67
2023-03-26T02:07:51.525Z,45.21
2023-03-26T02:10:27.802Z,46.22
2023-03-26T02:12:54.849Z,44.32
2023-03-26T02:15:21.468Z,45.62
2023-03-26T02:17:49.557Z,45.19
2023-03-26T02:20:18.859Z,45.07
2023-03-26T02:22:47.289Z,46.49
2023-03-26T02:25:20.623Z,45.76
2023-03-26T02:27:50.375Z,45.94
2023-03-26T02:30:19.537Z,46.40
2023-03-26T02:32:52.216Z,47.33
2023-03-26T02:35:21.902Z,47.08
2023-03-26T02:37:52.656Z,46.79
2023-03-26T02:40:22.483Z,47.57
2023-03-26T02:42:50.776Z,47.12
2023-03-26T02:45:17.488Z,46.23
2023-03-26T02:47:51.057Z,46.77
2023-03-26T02:50:42.093Z,46.61
2023-03-26T02:53:37.614Z,46.17
2023-03-26T02:56:36.561Z,46.55
2023-03-26T02:59:22.028Z,46.36
2023-03-26T03:02:01.687Z,47.61
2023-03-26T03:04:31.983Z,47.84
2023-03-26T03:06:59.928Z,47.11
2023-03-26T03:09:26.793Z,47.62
2023-03-26T03:12:11.794Z,48.20
2023-03-26T03:14:38.576Z,47.28
2023-03-26T03:17:05.737Z,48.04
2023-03-26T03:19:32.477Z,47.85
2023-03-26T03:21:59.236Z,48.34
2023-03-26T03:24:27.184Z,48.35
2023-03-26T03:26:56.917Z,47.57
2023-03-26T03:29:33.063Z,46.95
2023-03-26T03:32:19.996Z,47.58
2023-03-26T03:34:50.791Z,48.83
2023-03-26T03:37:18.973Z,48.95
2023-03-26T03:39:51.457Z,47.64
2023-03-26T03:42:20.899Z,47.45
2023-03-26T03:44:49.825Z,46.93
2023-03-26T03:47:39.928Z,46.69
2023-03-26T03:50:07.521Z,48.25
2023-03-26T03:52:35.119Z,48.03
2023-03-26T03:55:02.122Z,47.24
2023-03-26T03:57:52.738Z,47.64
2023-03-26T04:00:22.687Z,48.06
2023-03-26T04:03:06.479Z,47.90
2023-03-26T04:05:34.058Z,49.29
2023-03-26T04:08:00.777Z,48.11
2023-03-26T04:10:51.237Z,47.09
2023-03-26T04:13:38.225Z,47.73
2023-03-26T04:16:25.299Z,46.49
2023-03-26T04:18:52.140Z,46.58
2023-03-26T04:21:19.368Z,46.09
2023-03-26T04:23:46.182Z,46.96
2023-03-26T04:26:38.733Z,46.91
2023-03-26T04:29:17.074Z,45.70
2023-03-26T04:31:44.997Z,45.65
2023-03-26T04:34:26.286Z,46.49
2023-03-26T04:37:39.666Z,46.06
2023-03-26T04:40:22.014Z,46.54
2023-03-26T04:43:12.509Z,46.34
2023-03-26T04:46:11.758Z,45.64
2023-03-26T04:48:50.746Z,46.12
2023-03-26T04:51:18.598Z,45.85
2023-03-26T04:53:54.359Z,45.00
2023-03-26T04:56:43.822Z,45.19
2023-03-26T04:59:30.239Z,45.81
2023-03-26T05:01:59.046Z,45.83
2023-03-26T05:04:34.096Z,45.65
2023-03-26T05:07:02.283Z,45.64
2023-03-26T05:09:41.857Z,45.83
2023-03-26T05:12:30.438Z,46.23
2023-03-26T05:15:03.784Z,46.13
2023-03-26T05:17:55.612Z,45.07
2023-03-26T05:20:40.096Z,46.50
2023-03-26T05:23:08.457Z,46.80
2023-03-26T05:25:37.862Z,45.95
2023-03-26T05:28:11.768Z,46.00
2023-03-26T05:30:47.129Z,46.74
2023-03-26T05:33:14.193Z,44.80
2023-03-26T05:35:58.604Z,44.99
2023-03-26T05:38:25.630Z,46.35
2023-03-26T05:40:56.991Z,46.26
2023-03-26T05:43:23.648Z,45.80
2023-03-26T05:46:16.806Z,47.10
2023-03-26T05:48:44.655Z,46.52
2023-03-26T05:51:12.501Z,46.25
2023-03-26T05:53:43.398Z,46.72
2023-03-26T05:56:28.774Z,46.36
2023-03-26T05:59:18.250Z,46.37
2023-03-26T06:02:03.334Z,46.00
2023-03-26T06:04:42.536Z,46.73
2023-03-26T06:07:47.766Z,46.79
2023-03-26T06:10:19.089Z,45.46
2023-03-26T06:12:46.394Z,44.90
2023-03-26T06:15:13.464Z,44.47
2023-03-26T06:18:01.450Z,44.27
2023-03-26T06:20:46.867Z,43.68
2023-03-26T06:23:23.228Z,43.83
2023-03-26T06:26:10.058Z,43.51
2023-03-26T06:29:01.440Z,43.07
2023-03-26T06:31:43.961Z,42.94
2023-03-26T06:34:18.745Z,42.64
2023-03-26T06:36:45.747Z,42.16
2023-03-26T06:39:12.278Z,42.53
2023-03-26T06:41:47.293Z,41.90
2023-03-26T06:44:34.282Z,42.17
2023-03-26T06:47:21.371Z,41.62
2023-03-26T06:49:48.026Z,41.34
2023-03-26T06:52:31.627Z,41.15
2023-03-26T06:55:05.905Z,40.33
2023-03-26T06:57:50.262Z,40.47
2023-03-26T07:00:42.876Z,40.51
2023-03-26T07:03:28.338Z,40.85
2023-03-26T07:06:13.677Z,42.42
2023-03-26T07:09:06.516Z,40.18
2023-03-26T07:11:52.029Z,40.45
2023-03-26T07:14:50.556Z,39.91
2023-03-26T07:17:26.563Z,39.72
2023-03-26T07:20:01.425Z,39.23
2023-03-26T07:22:28.316Z,39.54
2023-03-26T07:25:15.809Z,38.99
2023-03-26T07:28:06.630Z,41.24
2023-03-26T07:30:59.252Z,41.48
2023-03-26T07:33:48.507Z,41.13
2023-03-26T07:36:43.597Z,40.32
2023-03-26T07:39:43.684Z,39.66
2023-03-26T07:42:39.693Z,38.36
2023-03-26T07:45:29.398Z,39.17
2023-03-26T07:48:25.399Z,37.95
2023-03-26T07:51:14.636Z,37.76
2023-03-26T07:54:08.993Z,37.42
2023-03-26T07:56:45.539Z,37.04
2023-03-26T07:59:46.329Z,38.15
2023-03-26T08:02:47.081Z,37.79
2023-03-26T08:05:45.784Z,36.78
2023-03-26T08:09:04.615Z,35.82
2023-03-26T08:12:14.298Z,35.23
2023-03-26T08:14:48.077Z,35.33
2023-03-26T08:17:17.442Z,34.99
2023-03-26T08:20:07.316Z,34.40
2023-03-26T08:22:37.418Z,33.30
2023-03-26T08:25:04.053Z,33.42
2023-03-26T08:27:41.535Z,32.50
2023-03-26T08:30:10.799Z,32.05
2023-03-26T08:32:37.782Z,31.42
2023-03-26T08:35:05.096Z,31.54
2023-03-26T08:37:31.803Z,31.56
2023-03-26T08:39:58.453Z,31.16
2023-03-26T08:42:36.789Z,31.44
2023-03-26T08:45:10.351Z,32.22
2023-03-26T08:48:04.152Z,32.10
2023-03-26T08:50:53.139Z,31.21
2023-03-26T08:53:20.375Z,31.61
2023-03-26T08:56:02.981Z,31.10
2023-03-26T08:58:47.331Z,30.97
2023-03-26T09:01:29.301Z,30.81
2023-03-26T09:04:14.065Z,30.83
2023-03-26T09:06:59.216Z,29.58
2023-03-26T09:09:43.027Z,29.89
2023-03-26T09:12:28.936Z,30.33
2023-03-26T09:14:58.426Z,29.45
2023-03-26T09:17:48.402Z,31.37
2023-03-26T09:20:21.928Z,28.06
2023-03-26T09:23:22.003Z,28.68
2023-03-26T09:25:51.467Z,27.96
2023-03-26T09:28:44.420Z,28.81
2023-03-26T09:31:29.980Z,27.67
2023-03-26T09:34:01.048Z,30.37
2023-03-26T09:36:27.649Z,29.34
2023-03-26T09:39:03.192Z,27.84
2023-03-26T09:41:35.793Z,26.40
2023-03-26T09:44:13.244Z,27.50
2023-03-26T09:46:46.667Z,26.94
2023-03-26T09:49:30.938Z,26.46
2023-03-26T09:52:16.509Z,26.44
2023-03-26T09:54:44.661Z,26.00
2023-03-26T09:57:21.982Z,26.57
2023-03-26T10:00:09.818Z,27.97
2023-03-26T10:02:53.859Z,28.27
2023-03-26T10:05:38.394Z,27.78
2023-03-26T10:08:20.299Z,28.03
2023-03-26T10:11:11.217Z,28.67
2023-03-26T10:13:43.679Z,27.15
2023-03-26T10:16:19.527Z,27.13
2023-03-26T10:18:49.561Z,26.27
2023-03-26T10:21:27.520Z,26.17
2023-03-26T10:23:57.031Z,25.34
2023-03-26T10:27:09.827Z,25.74
2023-03-26T10:29:38.785Z,25.01
2023-03-26T10:32:05.976Z,24.49
2023-03-26T10:34:44.757Z,24.11
2023-03-26T10:37:20.996Z,24.17
2023-03-26T10:40:05.976Z,24.46
2023-03-26T10:42:38.579Z,23.98
2023-03-26T10:45:23.985Z,23.80
2023-03-26T10:48:09.214Z,24.97
2023-03-26T10:50:51.974Z,25.06
2023-03-26T10:53:37.400Z,24.44
2023-03-26T10:56:25.730Z,24.54
2023-03-26T10:58:52.605Z,24.05
2023-03-26T11:01:25.312Z,24.42
2023-03-26T11:04:03.549Z,24.14
2023-03-26T11:06:34.846Z,22.91
2023-03-26T11:09:12.282Z,24.04
2023-03-26T11:11:45.678Z,23.91
2023-03-26T11:14:16.834Z,24.13
2023-03-26T11:17:06.948Z,23.96
2023-03-26T11:19:53.223Z,22.43
2023-03-26T11:22:19.979Z,23.27
2023-03-26T11:24:47.586Z,23.82
2023-03-26T11:27:35.453Z,22.55
2023-03-26T11:30:11.517Z,22.40
2023-03-26T11:32:55.812Z,21.36
2023-03-26T11:35:39.395Z,22.27
2023-03-26T11:38:32.886Z,20.71
2023-03-26T11:41:01.222Z,21.01
2023-03-26T11:43:52.417Z,22.07
2023-03-26T11:46:21.669Z,25.85
2023-03-26T11:48:50.814Z,21.65
2023-03-26T11:51:27.533Z,21.72
2023-03-26T11:53:54.584Z,22.51
2023-03-26T11:56:33.909Z,21.83
2023-03-26T11:59:05.872Z,21.00
2023-03-26T12:01:50.814Z,21.41
2023-03-26T12:04:25.765Z,20.82
2023-03-26T12:07:07.002Z,19.85
2023-03-26T12:09:35.366Z,19.52
2023-03-26T12:12:03.889Z,20.30
2023-03-26T12:14:34.011Z,20.57
2023-03-26T12:17:05.883Z,20.26
2023-03-26T12:19:38.152Z,19.95
2023-03-26T12:22:05.208Z,19.74
2023-03-26T12:24:34.037Z,18.22
2023-03-26T12:27:20.383Z,18.57
2023-03-26T12:30:00.207Z,19.06
2023-03-26T12:32:43.231Z,17.12
2023-03-26T12:35:39.197Z,17.79
2023-03-26T12:38:24.336Z,16.95
2023-03-26T12:42:52.656Z,16.92
2023-03-26T12:44:55.609Z,17.62
2023-03-26T12:48:00.200Z,17.60
2023-03-26T12:50:14.473Z,16.99
2023-03-26T12:53:01.078Z,16.56
2023-03-26T12:55:30.697Z,16.34
2023-03-26T12:58:14.057Z,15.54
2023-03-26T13:00:41.770Z,15.44
2023-03-26T13:03:27.773Z,15.40
2023-03-26T13:06:02.327Z,16.01
2023-03-26T13:08:30.311Z,14.94
2023-03-26T13:11:03.666Z,14.52
2023-03-26T13:13:43.242Z,14.93
2023-03-26T13:16:17.222Z,13.86
2023-03-26T13:18:50.845Z,14.53
2023-03-26T13:21:19.844Z,16.25
2023-03-26T13:23:52.960Z,16.11
2023-03-26T13:26:19.580Z,14.85
2023-03-26T13:29:09.161Z,15.32
2023-03-26T13:31:54.772Z,13.96
2023-03-26T13:34:41.782Z,14.41
2023-03-26T13:37:21.340Z,14.54
2023-03-26T13:40:16.048Z,15.61
2023-03-26T13:43:01.600Z,16.89
2023-03-26T13:45:31.311Z,15.43
2023-03-26T13:47:59.113Z,15.04
2023-03-26T13:50:38.473Z,14.95
2023-03-26T13:53:14.115Z,15.58
2023-03-26T13:55:42.591Z,16.42
2023-03-26T13:58:21.343Z,14.69
2023-03-26T14:01:00.367Z,15.93
2023-03-26T14:03:45.928Z,14.97
2023-03-26T14:06:18.804Z,14.20
2023-03-26T14:08:47.615Z,14.04
2023-03-26T14:11:21.741Z,14.17
2023-03-26T14:13:51.782Z,13.52
2023-03-26T14:16:26.355Z,14.00
2023-03-26T14:19:11.636Z,13.62
2023-03-26T14:21:38.389Z,13.49
2023-03-26T14:24:05.101Z,14.17
2023-03-26T14:26:50.273Z,14.52
2023-03-26T14:29:35.672Z,14.05
2023-03-26T14:32:24.259Z,14.21
2023-03-26T14:35:11.094Z,14.07
2023-03-26T14:37:57.473Z,14.31
2023-03-26T14:40:33.413Z,13.09
2023-03-26T14:43:04.335Z,13.86
2023-03-26T14:45:31.141Z,14.65
2023-03-26T14:48:16.993Z,13.53
2023-03-26T14:50:54.680Z,14.67
2023-03-26T14:53:28.761Z,14.50
2023-03-26T14:56:15.582Z,15.29
2023-03-26T14:59:01.251Z,15.61
2023-03-26T15:01:59.150Z,15.51
2023-03-26T15:04:44.068Z,14.96
2023-03-26T15:07:30.280Z,14.98
2023-03-26T15:09:56.902Z,15.00
2023-03-26T15:12:43.922Z,14.78
2023-03-26T15:15:26.335Z,14.22
2023-03-26T15:17:53.143Z,14.54
2023-03-26T15:20:38.628Z,14.22
2023-03-26T15:23:25.621Z,14.41
2023-03-26T15:26:01.146Z,14.96
2023-03-26T15:28:31.831Z,14.81
2023-03-26T15:31:09.796Z,15.01
2023-03-26T15:33:50.799Z,15.49
2023-03-26T15:36:23.416Z,15.19
2023-03-26T15:38:50.015Z,15.14
2023-03-26T15:41:17.707Z,15.64
2023-03-26T15:44:22.819Z,16.35
2023-03-26T15:46:51.306Z,17.93
2023-03-26T15:49:27.092Z,16.79
2023-03-26T15:52:12.655Z,17.17
2023-03-26T15:54:39.544Z,16.88
2023-03-26T15:57:17.635Z,17.65
2023-03-26T15:59:53.137Z,16.66
2023-03-26T16:02:28.608Z,16.76
2023-03-26T16:04:57.590Z,17.17
2023-03-26T16:07:24.253Z,17.48
2023-03-26T16:10:09.993Z,17.56
2023-03-26T16:12:56.979Z,17.39
2023-03-26T16:15:23.665Z,17.60
2023-03-26T16:18:09.384Z,18.35
2023-03-26T16:20:36.573Z,18.34
2023-03-26T16:23:06.170Z,18.16
2023-03-26T16:25:34.796Z,18.35
2023-03-26T16:28:10.772Z,18.30
2023-03-26T16:30:37.684Z,18.14
2023-03-26T16:33:15.692Z,17.91
2023-03-26T16:36:06.357Z,17.97
2023-03-26T16:38:51.942Z,18.12
2023-03-26T16:41:22.028Z,18.37
2023-03-26T16:43:50.921Z,18.60
2023-03-26T16:46:20.733Z,18.16
2023-03-26T16:48:55.527Z,19.06
2023-03-26T16:51:46.506Z,18.91
2023-03-26T16:54:32.466Z,19.50
2023-03-26T16:57:15.919Z,18.73
2023-03-26T17:00:04.615Z,18.46
2023-03-26T17:02:52.434Z,18.43
2023-03-26T17:05:37.382Z,18.46
2023-03-26T17:08:35.939Z,18.34
2023-03-26T17:11:21.038Z,18.62
2023-03-26T17:13:51.643Z,18.78
2023-03-26T17:16:32.523Z,19.20
2023-03-26T17:19:06.562Z,19.70
2023-03-26T17:21:55.566Z,19.30
2023-03-26T17:24:30.710Z,19.64
2023-03-26T17:27:23.874Z,19.87
2023-03-26T17:29:59.939Z,19.84
2023-03-26T17:32:47.280Z,20.60
2023-03-26T17:35:15.489Z,20.79
2023-03-26T17:37:47.865Z,21.09
2023-03-26T17:40:31.172Z,21.04
2023-03-26T17:43:08.290Z,21.51
2023-03-26T17:45:37.285Z,22.11
2023-03-26T17:48:10.387Z,21.49
2023-03-26T17:50:45.983Z,22.31
2023-03-26T17:53:12.683Z,22.58
2023-03-26T17:55:40.953Z,22.13
2023-03-26T17:58:28.818Z,22.42
2023-03-26T18:01:04.097Z,22.87
2023-03-26T18:03:35.459Z,23.48
2023-03-26T18:06:13.344Z,23.88
2023-03-26T18:08:49.161Z,24.01
2023-03-26T18:11:36.188Z,24.20
2023-03-26T18:14:18.028Z,24.46
2023-03-26T18:16:47.860Z,24.76
2023-03-26T18:19:19.433Z,24.30
2023-03-26T18:21:50.182Z,23.77
2023-03-26T18:24:36.027Z,24.21
2023-03-26T18:27:14.785Z,24.32
2023-03-26T18:29:46.053Z,24.43
2023-03-26T18:32:12.708Z,23.79
2023-03-26T18:34:46.484Z,24.05
2023-03-26T18:37:18.496Z,24.04
2023-03-26T18:40:02.416Z,24.52
2023-03-26T18:42:32.662Z,24.48
2023-03-26T18:45:01.979Z,24.30
2023-03-26T18:47:30.560Z,23.90
2023-03-26T18:49:58.035Z,24.25
2023-03-26T18:52:27.259Z,24.30
2023-03-26T18:54:54.352Z,24.03
2023-03-26T18:57:23.010Z,24.46
2023-03-26T18:59:51.683Z,24.39
2023-03-26T19:02:18.896Z,24.43
2023-03-26T19:04:47.137Z,24.31
2023-03-26T19:07:15.742Z,24.08
2023-03-26T19:09:43.288Z,24.25
2023-03-26T19:12:17.890Z,24.02
2023-03-26T19:14:51.318Z,23.80
2023-03-26T19:17:18.358Z,23.96
2023-03-26T19:19:46.215Z,24.32
2023-03-26T19:22:12.810Z,23.89
2023-03-26T19:24:41.000Z,24.09
2023-03-26T19:27:08.757Z,24.18
2023-03-26T19:29:36.224Z,24.83
2023-03-26T19:32:05.261Z,24.87
2023-03-26T19:34:34.884Z,25.37
2023-03-26T19:37:17.295Z,25.38
2023-03-26T19:39:45.103Z,24.68
2023-03-26T19:42:17.607Z,24.55
2023-03-26T19:44:44.628Z,24.95
2023-03-26T19:47:17.065Z,25.50
2023-03-26T19:49:57.581Z,26.20
2023-03-26T19:52:31.844Z,24.80
2023-03-26T19:55:02.947Z,23.78
2023-03-26T19:57:30.465Z,24.31
2023-03-26T19:59:57.541Z,24.52
2023-03-26T20:02:24.718Z,25.11
2023-03-26T20:04:51.458Z,26.49
2023-03-26T20:07:19.497Z,26.44
2023-03-26T20:09:52.444Z,26.32
2023-03-26T20:12:19.782Z,26.21
2023-03-26T20:14:46.536Z,25.87
2023-03-26T20:17:14.234Z,25.90
2023-03-26T20:19:41.018Z,25.70
2023-03-26T20:22:20.017Z,25.55
2023-03-26T20:24:46.860Z,25.39
2023-03-26T20:27:14.373Z,25.24
2023-03-26T20:29:41.351Z,25.92
2023-03-26T20:32:17.504Z,25.85
2023-03-26T20:34:44.687Z,25.31
2023-03-26T20:37:11.216Z,25.73
2023-03-26T20:39:39.543Z,25.69
2023-03-26T20:42:06.314Z,25.30
2023-03-26T20:44:33.082Z,25.46
2023-03-26T20:46:59.734Z,25.54
2023-03-26T20:49:29.509Z,25.75
2023-03-26T20:51:56.242Z,25.61
2023-03-26T20:54:24.615Z,25.49
2023-03-26T20:56:52.532Z,25.36
2023-03-26T20:59:21.709Z,25.39
2023-03-26T21:01:49.939Z,25.56
2023-03-26T21:04:17.565Z,25.98
2023-03-26T21:06:44.421Z,25.93
2023-03-26T21:09:15.952Z,26.21
2023-03-26T21:11:45.875Z,25.48
2023-03-26T21:14:18.504Z,25.44
2023-03-26T21:16:45.477Z,25.77
2023-03-26T21:19:13.352Z,26.31
2023-03-26T21:21:57.604Z,26.75
2023-03-26T21:24:33.126Z,26.56
2023-03-26T21:27:00.021Z,26.89
2023-03-26T21:29:27.397Z,27.85
2023-03-26T21:31:55.348Z,27.98
2023-03-26T21:37:07.347Z,27.53
2023-03-26T21:39:34.235Z,26.98
2023-03-26T21:42:04.835Z,27.23
2023-03-26T21:44:33.008Z,27.46
2023-03-26T21:46:59.765Z,27.27
2023-03-26T21:49:26.596Z,27.49
2023-03-26T21:51:53.508Z,27.21
2023-03-26T21:54:22.693Z,27.30
2023-03-26T21:57:08.179Z,26.98
2023-03-26T21:59:39.870Z,27.37
2023-03-26T22:02:17.657Z,28.21
2023-03-26T22:05:00.678Z,27.85
2023-03-26T22:07:41.601Z,27.59
2023-03-26T22:10:08.384Z,28.13
2023-03-26T22:12:35.148Z,27.31
2023-03-26T22:15:01.826Z,27.33
2023-03-26T22:17:28.752Z,27.54
2023-03-26T22:19:56.155Z,27.23
2023-03-26T22:25:10.438Z,27.63
2023-03-26T22:27:44.513Z,27.55
2023-03-26T22:30:12.483Z,27.76
2023-03-26T22:32:39.262Z,27.79
2023-03-26T22:35:07.032Z,27.87
2023-03-26T22:37:34.514Z,27.56
2023-03-26T22:40:01.382Z,28.07
2023-03-26T22:42:28.044Z,28.51
2023-03-26T22:44:54.861Z,28.61
2023-03-26T22:47:22.612Z,28.94
2023-03-26T22:49:49.430Z,29.47
2023-03-26T22:52:16.040Z,29.12
2023-03-26T22:54:42.778Z,29.87
2023-03-26T22:57:09.617Z,30.04
2023-03-26T22:59:36.290Z,30.21
2023-03-26T23:02:03.056Z,29.43
2023-03-26T23:04:32.461Z,29.36
2023-03-26T23:06:59.258Z,29.01
2023-03-26T23:09:25.861Z,28.75
2023-03-26T23:11:52.645Z,29.54
2023-03-26T23:14:19.281Z,28.97
2023-03-26T23:16:46.005Z,29.62
2023-03-26T23:19:12.781Z,28.97
2023-03-26T23:21:40.092Z,29.41
2023-03-26T23:24:06.847Z,28.57
2023-03-26T23:26:47.980Z,28.93
2023-03-26T23:29:17.400Z,28.79
2023-03-26T23:31:44.077Z,29.54
2023-03-26T23:34:13.480Z,29.56
2023-03-26T23:36:40.923Z,29.86
2023-03-26T23:39:09.252Z,29.06
2023-03-26T23:41:36.839Z,29.18
2023-03-26T23:44:03.938Z,28.87
2023-03-26T23:46:33.087Z,30.18
2023-03-26T23:49:02.474Z,29.35
2023-03-26T23:51:30.405Z,30.08
2023-03-26T23:53:57.871Z,29.63
2023-03-26T23:56:24.538Z,29.78
2023-03-26T23:58:51.235Z,29.76
